sensor_id;sensor_type;location;lat;lon;timestamp;pressure;altitude;pressure_sealevel;temperature;humidity
61786;BME280;47692;53.714;11.372;2023-02-19T00:01:24;100870.19;;;1.72;100.00
61786;BME280;47692;53.714;11.372;2023-02-19T00:03:59;100872.78;;;1.73;100.00
61786;BME280;47692;53.714;11.372;2023-02-19T00:06:27;100878.75;;;1.71;100.00
61786;BME280;47692;53.714;11.372;2023-02-19T00:08:53;100881.34;;;1.74;100.00
61786;BME280;47692;53.714;11.372;2023-02-19T00:11:23;100883.06;;;1.73;100.00
61786;BME280;47692;53.714;11.372;2023-02-19T00:13:51;100890.78;;;1.72;100.00
61786;BME280;47692;53.714;11.372;2023-02-19T00:16:31;100870.19;;;1.72;100.00
61786;BME280;47692;53.714;11.372;2023-02-19T00:18:58;100871.94;;;1.76;100.00
61786;BME280;47692;53.714;11.372;2023-02-19T00:21:24;100875.38;;;1.75;100.00
61786;BME280;47692;53.714;11.372;2023-02-19T00:23:52;100878.84;;;1.77;100.00
61786;BME280;47692;53.714;11.372;2023-02-19T00:26:18;100873.69;;;1.77;100.00
61786;BME280;47692;53.714;11.372;2023-02-19T00:28:45;100877.06;;;1.73;100.00
61786;BME280;47692;53.714;11.372;2023-02-19T00:31:15;100878.03;;;1.80;100.00
61786;BME280;47692;53.714;11.372;2023-02-19T00:33:42;100877.94;;;1.76;100.00
61786;BME280;47692;53.714;11.372;2023-02-19T00:36:07;100873.69;;;1.77;100.00
61786;BME280;47692;53.714;11.372;2023-02-19T00:38:36;100872.81;;;1.76;100.00
61786;BME280;47692;53.714;11.372;2023-02-19T00:41:03;100875.44;;;1.78;100.00
61786;BME280;47692;53.714;11.372;2023-02-19T00:43:57;100872.84;;;1.78;100.00
61786;BME280;47692;53.714;11.372;2023-02-19T00:46:25;100870.22;;;1.76;100.00
61786;BME280;47692;53.714;11.372;2023-02-19T00:48:51;100871.13;;;1.77;100.00
61786;BME280;47692;53.714;11.372;2023-02-19T00:51:17;100876.28;;;1.78;100.00
61786;BME280;47692;53.714;11.372;2023-02-19T00:53:42;100878.94;;;1.83;100.00
61786;BME280;47692;53.714;11.372;2023-02-19T00:56:08;100878.13;;;1.87;100.00
61786;BME280;47692;53.714;11.372;2023-02-19T00:58:33;100882.34;;;1.82;100.00
61786;BME280;47692;53.714;11.372;2023-02-19T01:00:59;100882.38;;;1.85;100.00
61786;BME280;47692;53.714;11.372;2023-02-19T01:03:25;100889.28;;;1.86;100.00
61786;BME280;47692;53.714;11.372;2023-02-19T01:05:51;100891.75;;;1.80;100.00
61786;BME280;47692;53.714;11.372;2023-02-19T01:08:17;100892.66;;;1.82;100.00
61786;BME280;47692;53.714;11.372;2023-02-19T01:10:42;100882.44;;;1.88;100.00
61786;BME280;47692;53.714;11.372;2023-02-19T01:13:08;100887.59;;;1.88;100.00
61786;BME280;47692;53.714;11.372;2023-02-19T01:15:33;100879.81;;;1.85;100.00
61786;BME280;47692;53.714;11.372;2023-02-19T01:17:58;100882.44;;;1.87;100.00
61786;BME280;47692;53.714;11.372;2023-02-19T01:20:24;100888.50;;;1.92;100.00
61786;BME280;47692;53.714;11.372;2023-02-19T01:22:50;100891.06;;;1.90;100.00
61786;BME280;47692;53.714;11.372;2023-02-19T01:25:16;100889.34;;;1.91;100.00
61786;BME280;47692;53.714;11.372;2023-02-19T01:27:41;100900.50;;;1.91;100.00
61786;BME280;47692;53.714;11.372;2023-02-19T01:30:07;100897.09;;;1.92;100.00
61786;BME280;47692;53.714;11.372;2023-02-19T01:32:32;100891.91;;;1.89;100.00
61786;BME280;47692;53.714;11.372;2023-02-19T01:34:58;100896.31;;;1.97;100.00
61786;BME280;47692;53.714;11.372;2023-02-19T01:37:23;100898.00;;;1.94;100.00
61786;BME280;47692;53.714;11.372;2023-02-19T01:39:48;100898.84;;;1.95;100.00
61786;BME280;47692;53.714;11.372;2023-02-19T01:42:15;100888.59;;;1.98;100.00
61786;BME280;47692;53.714;11.372;2023-02-19T01:47:12;100883.38;;;1.95;100.00
61786;BME280;47692;53.714;11.372;2023-02-19T01:49:46;100896.25;;;1.93;100.00
61786;BME280;47692;53.714;11.372;2023-02-19T01:52:21;100891.94;;;1.92;100.00
61786;BME280;47692;53.714;11.372;2023-02-19T01:54:49;100888.59;;;1.97;100.00
61786;BME280;47692;53.714;11.372;2023-02-19T01:57:18;100886.00;;;1.97;100.00
61786;BME280;47692;53.714;11.372;2023-02-19T01:59:46;100885.13;;;1.94;100.00
61786;BME280;47692;53.714;11.372;2023-02-19T02:02:14;100882.53;;;1.94;100.00
61786;BME280;47692;53.714;11.372;2023-02-19T02:04:39;100886.03;;;2.00;100.00
61786;BME280;47692;53.714;11.372;2023-02-19T02:07:05;100875.75;;;2.00;100.00
61786;BME280;47692;53.714;11.372;2023-02-19T02:09:53;100873.91;;;1.92;100.00
61786;BME280;47692;53.714;11.372;2023-02-19T02:12:38;100871.41;;;1.97;100.00
61786;BME280;47692;53.714;11.372;2023-02-19T02:15:04;100875.63;;;1.90;100.00
61786;BME280;47692;53.714;11.372;2023-02-19T02:17:44;100865.31;;;1.90;100.00
61786;BME280;47692;53.714;11.372;2023-02-19T02:31:18;100862.78;;;1.95;100.00
61786;BME280;47692;53.714;11.372;2023-02-19T02:33:56;100861.84;;;1.88;100.00
61786;BME280;47692;53.714;11.372;2023-02-19T02:36:28;100864.41;;;1.87;100.00
61786;BME280;47692;53.714;11.372;2023-02-19T02:38:54;100859.25;;;1.87;100.00
61786;BME280;47692;53.714;11.372;2023-02-19T02:41:21;100861.75;;;1.82;100.00
61786;BME280;47692;53.714;11.372;2023-02-19T02:43:47;100858.34;;;1.83;100.00
61786;BME280;47692;53.714;11.372;2023-02-19T02:46:18;100852.38;;;1.87;100.00
61786;BME280;47692;53.714;11.372;2023-02-19T02:48:49;100851.44;;;1.82;100.00
61786;BME280;47692;53.714;11.372;2023-02-19T02:51:27;100860.91;;;1.83;100.00
61786;BME280;47692;53.714;11.372;2023-02-19T02:56:41;100856.50;;;1.76;100.00
61786;BME280;47692;53.714;11.372;2023-02-19T02:59:10;100857.50;;;1.84;100.00
61786;BME280;47692;53.714;11.372;2023-02-19T03:01:45;100860.00;;;1.81;100.00
61786;BME280;47692;53.714;11.372;2023-02-19T03:07:36;100859.03;;;1.73;100.00
61786;BME280;47692;53.714;11.372;2023-02-19T03:10:04;100855.59;;;1.72;100.00
61786;BME280;47692;53.714;11.372;2023-02-19T03:12:33;100848.69;;;1.71;100.00
61786;BME280;47692;53.714;11.372;2023-02-19T03:15:19;100851.31;;;1.73;100.00
61786;BME280;47692;53.714;11.372;2023-02-19T03:18:07;100862.41;;;1.69;100.00
61786;BME280;47692;53.714;11.372;2023-02-19T03:20:55;100852.94;;;1.68;100.00
61786;BME280;47692;53.714;11.372;2023-02-19T03:23:25;100852.91;;;1.65;100.00
61786;BME280;47692;53.714;11.372;2023-02-19T03:26:12;100837.50;;;1.68;100.00
61786;BME280;47692;53.714;11.372;2023-02-19T03:28:39;100847.69;;;1.61;100.00
61786;BME280;47692;53.714;11.372;2023-02-19T03:31:28;100845.97;;;1.60;100.00
61786;BME280;47692;53.714;11.372;2023-02-19T03:33:58;100851.13;;;1.60;100.00
61786;BME280;47692;53.714;11.372;2023-02-19T03:36:32;100854.53;;;1.59;100.00
61786;BME280;47692;53.714;11.372;2023-02-19T03:39:06;100857.88;;;1.55;100.00
61786;BME280;47692;53.714;11.372;2023-02-19T03:44:24;100857.84;;;1.52;100.00
61786;BME280;47692;53.714;11.372;2023-02-19T03:46:59;100863.78;;;1.48;100.00
61786;BME280;47692;53.714;11.372;2023-02-19T03:49:51;100863.81;;;1.50;100.00
61786;BME280;47692;53.714;11.372;2023-02-19T03:52:38;100868.88;;;1.47;100.00
61786;BME280;47692;53.714;11.372;2023-02-19T04:00:38;100867.84;;;1.37;100.00
61786;BME280;47692;53.714;11.372;2023-02-19T04:03:14;100871.34;;;1.39;100.00
61786;BME280;47692;53.714;11.372;2023-02-19T04:05:50;100875.56;;;1.35;100.00
61786;BME280;47692;53.714;11.372;2023-02-19T04:08:19;100873.75;;;1.29;100.00
61786;BME280;47692;53.714;11.372;2023-02-19T04:10:46;100876.38;;;1.33;100.00
61786;BME280;47692;53.714;11.372;2023-02-19T04:13:21;100881.47;;;1.29;100.00
61786;BME280;47692;53.714;11.372;2023-02-19T04:15:50;100888.25;;;1.24;100.00
61786;BME280;47692;53.714;11.372;2023-02-19T04:18:21;100893.41;;;1.24;100.00
61786;BME280;47692;53.714;11.372;2023-02-19T04:20:49;100891.69;;;1.26;100.00
61786;BME280;47692;53.714;11.372;2023-02-19T04:23:16;100891.69;;;1.26;100.00
61786;BME280;47692;53.714;11.372;2023-02-19T04:25:46;100891.66;;;1.23;100.00
61786;BME280;47692;53.714;11.372;2023-02-19T04:28:13;100898.53;;;1.24;100.00
61786;BME280;47692;53.714;11.372;2023-02-19T04:30:41;100891.69;;;1.26;100.00
61786;BME280;47692;53.714;11.372;2023-02-19T04:33:06;100907.19;;;1.29;100.00
61786;BME280;47692;53.714;11.372;2023-02-19T04:35:31;100905.47;;;1.28;100.00
61786;BME280;47692;53.714;11.372;2023-02-19T04:37:57;100913.91;;;1.21;100.00
61786;BME280;47692;53.714;11.372;2023-02-19T04:40:22;100916.44;;;1.18;100.00
61786;BME280;47692;53.714;11.372;2023-02-19T04:42:47;100917.25;;;1.17;100.00
61786;BME280;47692;53.714;11.372;2023-02-19T04:45:13;100918.94;;;1.15;100.00
61786;BME280;47692;53.714;11.372;2023-02-19T04:47:38;100917.19;;;1.14;100.00
61786;BME280;47692;53.714;11.372;2023-02-19T04:50:03;100917.06;;;1.08;100.00
61786;BME280;47692;53.714;11.372;2023-02-19T04:52:29;100923.16;;;1.11;100.00
61786;BME280;47692;53.714;11.372;2023-02-19T04:54:54;100926.50;;;1.07;100.00
61786;BME280;47692;53.714;11.372;2023-02-19T04:57:19;100921.38;;;1.09;100.00
61786;BME280;47692;53.714;11.372;2023-02-19T04:59:45;100931.63;;;1.06;100.00
61786;BME280;47692;53.714;11.372;2023-02-19T05:02:10;100932.44;;;1.05;100.00
61786;BME280;47692;53.714;11.372;2023-02-19T05:04:36;100939.22;;;1.00;100.00
61786;BME280;47692;53.714;11.372;2023-02-19T05:07:01;100940.06;;;1.00;100.00
61786;BME280;47692;53.714;11.372;2023-02-19T05:09:26;100942.63;;;0.99;100.00
61786;BME280;47692;53.714;11.372;2023-02-19T05:11:52;100948.59;;;0.98;100.00
61786;BME280;47692;53.714;11.372;2023-02-19T05:14:17;100947.75;;;0.99;100.00
61786;BME280;47692;53.714;11.372;2023-02-19T05:16:42;100948.59;;;0.98;100.00
61786;BME280;47692;53.714;11.372;2023-02-19T05:19:10;100949.53;;;1.03;100.00
61786;BME280;47692;53.714;11.372;2023-02-19T05:21:35;100949.63;;;1.06;100.00
61786;BME280;47692;53.714;11.372;2023-02-19T05:24:01;100949.50;;;1.00;100.00
61786;BME280;47692;53.714;11.372;2023-02-19T05:26:26;100951.22;;;1.01;100.00
61786;BME280;47692;53.714;11.372;2023-02-19T05:28:52;100948.56;;;0.96;100.00
61786;BME280;47692;53.714;11.372;2023-02-19T05:31:18;100960.59;;;0.97;100.00
61786;BME280;47692;53.714;11.372;2023-02-19T05:33:43;100966.59;;;0.98;100.00
61786;BME280;47692;53.714;11.372;2023-02-19T05:36:12;100970.00;;;0.96;100.00
61786;BME280;47692;53.714;11.372;2023-02-19T05:38:38;100963.09;;;0.95;100.00
61786;BME280;47692;53.714;11.372;2023-02-19T05:41:12;100966.50;;;0.94;100.00
61786;BME280;47692;53.714;11.372;2023-02-19T05:43:38;100971.72;;;0.96;100.00
61786;BME280;47692;53.714;11.372;2023-02-19T05:46:06;100966.63;;;1.01;100.00
61786;BME280;47692;53.714;11.372;2023-02-19T05:48:32;100971.75;;;0.99;100.00
61786;BME280;47692;53.714;11.372;2023-02-19T05:51:02;100974.28;;;0.96;100.00
61786;BME280;47692;53.714;11.372;2023-02-19T05:53:27;100971.66;;;0.94;100.00
61786;BME280;47692;53.714;11.372;2023-02-19T05:55:53;100980.16;;;0.90;100.00
61786;BME280;47692;53.714;11.372;2023-02-19T05:58:18;100985.28;;;0.90;100.00
61786;BME280;47692;53.714;11.372;2023-02-19T06:00:43;100989.56;;;0.90;100.00
61786;BME280;47692;53.714;11.372;2023-02-19T06:03:09;100995.53;;;0.87;100.00
61786;BME280;47692;53.714;11.372;2023-02-19T06:05:34;100996.22;;;0.80;100.00
61786;BME280;47692;53.714;11.372;2023-02-19T06:07:59;101005.59;;;0.78;100.00
61786;BME280;47692;53.714;11.372;2023-02-19T06:10:24;101012.41;;;0.76;100.00
61786;BME280;47692;53.714;11.372;2023-02-19T06:12:53;101026.00;;;0.72;100.00
61786;BME280;47692;53.714;11.372;2023-02-19T06:15:19;101022.69;;;0.76;100.00
61786;BME280;47692;53.714;11.372;2023-02-19T06:17:44;101024.41;;;0.77;100.00
61786;BME280;47692;53.714;11.372;2023-02-19T06:20:10;101023.47;;;0.73;100.00
61786;BME280;47692;53.714;11.372;2023-02-19T06:22:35;101029.41;;;0.71;100.00
61786;BME280;47692;53.714;11.372;2023-02-19T06:25:00;101027.63;;;0.67;100.00
61786;BME280;47692;53.714;11.372;2023-02-19T06:27:26;101027.63;;;0.67;100.00
61786;BME280;47692;53.714;11.372;2023-02-19T06:29:52;101028.38;;;0.62;100.00
61786;BME280;47692;53.714;11.372;2023-02-19T06:32:17;101034.34;;;0.61;100.00
61786;BME280;47692;53.714;11.372;2023-02-19T06:34:42;101041.16;;;0.59;100.00
61786;BME280;47692;53.714;11.372;2023-02-19T06:37:08;101051.56;;;0.66;100.00
61786;BME280;47692;53.714;11.372;2023-02-19T06:39:33;101052.34;;;0.61;100.00
61786;BME280;47692;53.714;11.372;2023-02-19T06:41:59;101044.69;;;0.64;100.00
61786;BME280;47692;53.714;11.372;2023-02-19T06:44:24;101057.53;;;0.64;100.00
61786;BME280;47692;53.714;11.372;2023-02-19T06:46:50;101060.06;;;0.61;100.00
61786;BME280;47692;53.714;11.372;2023-02-19T06:49:18;101063.44;;;0.60;100.00
61786;BME280;47692;53.714;11.372;2023-02-19T06:51:43;101066.78;;;0.56;100.00
61786;BME280;47692;53.714;11.372;2023-02-19T06:54:08;101067.66;;;0.57;100.00
61786;BME280;47692;53.714;11.372;2023-02-19T06:56:36;101076.16;;;0.54;100.00
61786;BME280;47692;53.714;11.372;2023-02-19T06:59:05;101077.94;;;0.58;100.00
61786;BME280;47692;53.714;11.372;2023-02-19T07:01:33;101088.22;;;0.58;100.00
61786;BME280;47692;53.714;11.372;2023-02-19T07:03:59;101083.97;;;0.59;100.00
61786;BME280;47692;53.714;11.372;2023-02-19T07:06:25;101086.56;;;0.59;100.00
61786;BME280;47692;53.714;11.372;2023-02-19T07:08:51;101099.38;;;0.57;100.00
61786;BME280;47692;53.714;11.372;2023-02-19T07:11:18;101105.38;;;0.58;100.00
61786;BME280;47692;53.714;11.372;2023-02-19T07:13:44;101104.50;;;0.57;100.00
61786;BME280;47692;53.714;11.372;2023-02-19T07:16:10;101113.09;;;0.59;100.00
61786;BME280;47692;53.714;11.372;2023-02-19T07:18:37;101115.66;;;0.59;100.00
61786;BME280;47692;53.714;11.372;2023-02-19T07:21:11;101121.72;;;0.61;100.00
61786;BME280;47692;53.714;11.372;2023-02-19T07:23:36;101121.72;;;0.61;100.00
61786;BME280;47692;53.714;11.372;2023-02-19T07:26:03;101127.88;;;0.68;100.00
61786;BME280;47692;53.714;11.372;2023-02-19T07:28:28;101133.91;;;0.69;100.00
61786;BME280;47692;53.714;11.372;2023-02-19T07:30:59;101137.44;;;0.74;100.00
61786;BME280;47692;53.714;11.372;2023-02-19T07:33:24;101144.41;;;0.78;100.00
61786;BME280;47692;53.714;11.372;2023-02-19T07:35:49;101147.88;;;0.80;100.00
61786;BME280;47692;53.714;11.372;2023-02-19T07:38:18;101154.78;;;0.81;100.00
61786;BME280;47692;53.714;11.372;2023-02-19T07:40:57;101159.13;;;0.85;100.00
61786;BME280;47692;53.714;11.372;2023-02-19T07:43:25;101161.72;;;0.85;100.00
61786;BME280;47692;53.714;11.372;2023-02-19T07:45:51;101166.91;;;0.88;100.00
61786;BME280;47692;53.714;11.372;2023-02-19T07:48:17;101168.81;;;0.95;100.00
61786;BME280;47692;53.714;11.372;2023-02-19T07:53:18;101180.22;;;1.07;100.00
61786;BME280;47692;53.714;11.372;2023-02-19T07:55:43;101178.69;;;1.15;100.00
61786;BME280;47692;53.714;11.372;2023-02-19T07:58:08;101177.94;;;1.19;100.00
61786;BME280;47692;53.714;11.372;2023-02-19T08:00:34;101191.84;;;1.27;100.00
61786;BME280;47692;53.714;11.372;2023-02-19T08:02:59;101200.53;;;1.33;100.00
61786;BME280;47692;53.714;11.372;2023-02-19T08:05:33;101201.59;;;1.41;100.00
61786;BME280;47692;53.714;11.372;2023-02-19T08:07:59;101218.06;;;1.49;100.00
61786;BME280;47692;53.714;11.372;2023-02-19T08:10:25;101212.28;;;1.58;100.00
61786;BME280;47692;53.714;11.372;2023-02-19T08:13:12;101214.94;;;1.64;100.00
61786;BME280;47692;53.714;11.372;2023-02-19T08:15:50;101216.75;;;1.67;100.00
61786;BME280;47692;53.714;11.372;2023-02-19T08:18:18;101212.47;;;1.69;100.00
61786;BME280;47692;53.714;11.372;2023-02-19T08:20:44;101225.31;;;1.66;100.00
61786;BME280;47692;53.714;11.372;2023-02-19T08:23:10;101230.44;;;1.66;100.00
61786;BME280;47692;53.714;11.372;2023-02-19T08:25:35;101227.78;;;1.63;100.00
61786;BME280;47692;53.714;11.372;2023-02-19T08:28:01;101233.84;;;1.65;100.00
61786;BME280;47692;53.714;11.372;2023-02-19T08:30:27;101233.78;;;1.61;100.00
61786;BME280;47692;53.714;11.372;2023-02-19T08:32:53;101245.75;;;1.59;100.00
61786;BME280;47692;53.714;11.372;2023-02-19T08:35:18;101249.31;;;1.65;100.00
61786;BME280;47692;53.714;11.372;2023-02-19T08:37:44;101254.50;;;1.68;100.00
61786;BME280;47692;53.714;11.372;2023-02-19T08:40:10;101250.28;;;1.71;100.00
61786;BME280;47692;53.714;11.372;2023-02-19T08:42:35;101261.63;;;1.78;100.00
61786;BME280;47692;53.714;11.372;2023-02-19T08:45:00;101260.13;;;1.89;100.00
61786;BME280;47692;53.714;11.372;2023-02-19T08:47:26;101265.44;;;1.97;100.00
61786;BME280;47692;53.714;11.372;2023-02-19T08:49:51;101266.38;;;2.01;100.00
61786;BME280;47692;53.714;11.372;2023-02-19T08:52:16;101272.50;;;2.06;100.00
61786;BME280;47692;53.714;11.372;2023-02-19T08:54:42;101267.50;;;2.14;100.00
61786;BME280;47692;53.714;11.372;2023-02-19T08:57:07;101270.19;;;2.18;100.00
61786;BME280;47692;53.714;11.372;2023-02-19T08:59:32;101273.72;;;2.23;100.00
61786;BME280;47692;53.714;11.372;2023-02-19T09:01:58;101286.69;;;2.26;100.00
61786;BME280;47692;53.714;11.372;2023-02-19T09:04:23;101287.63;;;2.32;100.00
61786;BME280;47692;53.714;11.372;2023-02-19T09:06:49;101282.59;;;2.38;100.00
61786;BME280;47692;53.714;11.372;2023-02-19T09:09:14;101278.41;;;2.43;100.00
61786;BME280;47692;53.714;11.372;2023-02-19T09:11:40;101294.81;;;2.48;100.00
61786;BME280;47692;53.714;11.372;2023-02-19T09:14:05;101296.66;;;2.54;100.00
61786;BME280;47692;53.714;11.372;2023-02-19T09:16:32;101295.97;;;2.63;100.00
61786;BME280;47692;53.714;11.372;2023-02-19T09:18:58;101304.78;;;2.74;100.00
61786;BME280;47692;53.714;11.372;2023-02-19T09:21:23;101315.94;;;2.74;100.00
61786;BME280;47692;53.714;11.372;2023-02-19T09:23:48;101311.72;;;2.78;100.00
61786;BME280;47692;53.714;11.372;2023-02-19T09:26:14;101318.81;;;2.88;100.00
61786;BME280;47692;53.714;11.372;2023-02-19T09:28:39;101318.75;;;2.85;100.00
61786;BME280;47692;53.714;11.372;2023-02-19T09:31:07;101330.03;;;2.92;100.00
61786;BME280;47692;53.714;11.372;2023-02-19T09:33:33;101322.38;;;2.97;100.00
61786;BME280;47692;53.714;11.372;2023-02-19T09:35:59;101321.69;;;3.05;100.00
61786;BME280;47692;53.714;11.372;2023-02-19T09:38:25;101343.22;;;3.07;99.33
61786;BME280;47692;53.714;11.372;2023-02-19T09:40:51;101348.41;;;3.09;97.80
61786;BME280;47692;53.714;11.372;2023-02-19T09:43:19;101355.34;;;3.13;96.84
61786;BME280;47692;53.714;11.372;2023-02-19T09:45:47;101357.22;;;3.20;96.95
61786;BME280;47692;53.714;11.372;2023-02-19T09:48:13;101358.19;;;3.27;96.09
61786;BME280;47692;53.714;11.372;2023-02-19T09:50:41;101355.63;;;3.29;96.06
61786;BME280;47692;53.714;11.372;2023-02-19T09:53:20;101357.44;;;3.33;96.18
61786;BME280;47692;53.714;11.372;2023-02-19T09:55:46;101365.50;;;3.53;97.73
61786;BME280;47692;53.714;11.372;2023-02-19T09:58:25;101382.09;;;3.66;96.14
61786;BME280;47692;53.714;11.372;2023-02-19T10:00:53;101375.22;;;3.68;92.95
61786;BME280;47692;53.714;11.372;2023-02-19T10:03:26;101377.78;;;3.68;92.18
61786;BME280;47692;53.714;11.372;2023-02-19T10:06:02;101382.19;;;3.72;91.08
61786;BME280;47692;53.714;11.372;2023-02-19T10:08:32;101383.03;;;3.71;92.08
61786;BME280;47692;53.714;11.372;2023-02-19T10:11:00;101391.78;;;3.79;91.86
61786;BME280;47692;53.714;11.372;2023-02-19T10:13:30;101394.34;;;3.79;91.70
61786;BME280;47692;53.714;11.372;2023-02-19T10:15:59;101396.97;;;3.81;90.52
61786;BME280;47692;53.714;11.372;2023-02-19T10:18:28;101404.81;;;3.88;90.52
61786;BME280;47692;53.714;11.372;2023-02-19T10:20:56;101406.59;;;3.93;90.10
61786;BME280;47692;53.714;11.372;2023-02-19T10:23:23;101413.56;;;3.97;89.44
61786;BME280;47692;53.714;11.372;2023-02-19T10:25:52;101416.94;;;3.93;89.28
61786;BME280;47692;53.714;11.372;2023-02-19T10:28:21;101422.16;;;3.94;88.34
61786;BME280;47692;53.714;11.372;2023-02-19T10:30:51;101422.16;;;3.96;88.81
61786;BME280;47692;53.714;11.372;2023-02-19T10:33:18;101416.28;;;4.04;89.99
61786;BME280;47692;53.714;11.372;2023-02-19T10:36:26;101430.22;;;4.14;89.69
61786;BME280;47692;53.714;11.372;2023-02-19T10:38:53;101421.44;;;4.04;86.94
61786;BME280;47692;53.714;11.372;2023-02-19T10:41:21;101442.88;;;3.99;87.14
61786;BME280;47692;53.714;11.372;2023-02-19T10:44:22;101442.00;;;3.97;86.58
61786;BME280;47692;53.714;11.372;2023-02-19T10:46:51;101451.63;;;4.07;87.40
61786;BME280;47692;53.714;11.372;2023-02-19T10:49:30;101464.75;;;4.21;87.23
61786;BME280;47692;53.714;11.372;2023-02-19T10:52:00;101472.66;;;4.30;86.07
61786;BME280;47692;53.714;11.372;2023-02-19T10:54:32;101473.81;;;4.51;86.74
61786;BME280;47692;53.714;11.372;2023-02-19T10:59:51;101478.56;;;4.81;84.83
61786;BME280;47692;53.714;11.372;2023-02-19T11:02:19;101482.03;;;4.83;82.59
61786;BME280;47692;53.714;11.372;2023-02-19T11:05:19;101482.09;;;4.90;83.36
61786;BME280;47692;53.714;11.372;2023-02-19T11:07:49;101480.31;;;4.85;81.50
61786;BME280;47692;53.714;11.372;2023-02-19T11:12:51;101504.28;;;4.72;81.12
61786;BME280;47692;53.714;11.372;2023-02-19T11:15:35;101506.03;;;4.73;81.28
61786;BME280;47692;53.714;11.372;2023-02-19T11:18:34;101506.03;;;4.73;81.14
61786;BME280;47692;53.714;11.372;2023-02-19T11:21:05;101501.66;;;4.67;79.59
61786;BME280;47692;53.714;11.372;2023-02-19T11:23:43;101504.44;;;4.81;80.08
61786;BME280;47692;53.714;11.372;2023-02-19T11:26:19;101508.06;;;4.96;79.57
61786;BME280;47692;53.714;11.372;2023-02-19T11:28:54;101510.03;;;5.15;80.58
61786;BME280;47692;53.714;11.372;2023-02-19T11:31:27;101505.09;;;5.36;78.69
61786;BME280;47692;53.714;11.372;2023-02-19T11:36:25;101509.03;;;5.79;78.54
61786;BME280;47692;53.714;11.372;2023-02-19T11:38:53;101508.00;;;5.66;76.23
61786;BME280;47692;53.714;11.372;2023-02-19T11:52:21;101496.06;;;5.82;76.54
61786;BME280;47692;53.714;11.372;2023-02-19T11:55:04;101498.88;;;6.01;75.68
61786;BME280;47692;53.714;11.372;2023-02-19T11:57:49;101497.28;;;6.16;74.86
61786;BME280;47692;53.714;11.372;2023-02-19T12:09:24;101514.59;;;6.23;71.36
61786;BME280;47692;53.714;11.372;2023-02-19T12:11:57;101516.50;;;6.45;70.84
61786;BME280;47692;53.714;11.372;2023-02-19T12:14:43;101525.94;;;6.37;70.47
61786;BME280;47692;53.714;11.372;2023-02-19T12:17:38;101523.44;;;6.46;70.39
61786;BME280;47692;53.714;11.372;2023-02-19T12:20:21;101527.03;;;6.64;71.19
61786;BME280;47692;53.714;11.372;2023-02-19T12:22:53;101537.53;;;6.86;71.38
61786;BME280;47692;53.714;11.372;2023-02-19T12:31:20;101537.59;;;6.98;68.59
61786;BME280;47692;53.714;11.372;2023-02-19T12:36:42;101548.91;;;7.17;66.43
61786;BME280;47692;53.714;11.372;2023-02-19T12:39:22;101554.97;;;7.15;66.43
61786;BME280;47692;53.714;11.372;2023-02-19T12:47:04;101553.22;;;7.07;64.83
61786;BME280;47692;53.714;11.372;2023-02-19T12:49:35;101558.53;;;7.38;67.14
61786;BME280;47692;53.714;11.372;2023-02-19T12:52:08;101558.66;;;7.66;67.21
61786;BME280;47692;53.714;11.372;2023-02-19T12:54:41;101569.03;;;7.66;64.64
61786;BME280;47692;53.714;11.372;2023-02-19T12:57:26;101569.91;;;7.73;65.34
61786;BME280;47692;53.714;11.372;2023-02-19T13:00:15;101572.56;;;7.90;64.85
61786;BME280;47692;53.714;11.372;2023-02-19T13:02:49;101572.56;;;7.84;63.48
61786;BME280;47692;53.714;11.372;2023-02-19T13:05:30;101570.81;;;7.73;61.37
61786;BME280;47692;53.714;11.372;2023-02-19T13:08:06;101571.59;;;7.52;60.26
61786;BME280;47692;53.714;11.372;2023-02-19T13:10:40;101576.75;;;7.41;61.84
61786;BME280;47692;53.714;11.372;2023-02-19T13:13:55;101574.94;;;7.23;62.84
61786;BME280;47692;53.714;11.372;2023-02-19T13:16:20;101571.47;;;7.26;63.20
61786;BME280;47692;53.714;11.372;2023-02-19T13:18:58;101561.13;;;7.34;61.29
61786;BME280;47692;53.714;11.372;2023-02-19T13:21:28;101563.66;;;7.17;59.88
61786;BME280;47692;53.714;11.372;2023-02-19T13:24:29;101560.19;;;7.18;59.62
61786;BME280;47692;53.714;11.372;2023-02-19T13:27:32;101557.63;;;7.25;59.14
61786;BME280;47692;53.714;11.372;2023-02-19T13:33:04;101550.72;;;7.29;59.92
61786;BME280;47692;53.714;11.372;2023-02-19T13:36:14;101554.19;;;7.33;59.60
61786;BME280;47692;53.714;11.372;2023-02-19T13:38:44;101556.84;;;7.43;60.34
61786;BME280;47692;53.714;11.372;2023-02-19T13:42:01;101549.94;;;7.59;59.16
61786;BME280;47692;53.714;11.372;2023-02-19T13:44:31;101531.75;;;7.55;57.58
61786;BME280;47692;53.714;11.372;2023-02-19T13:46:57;101538.72;;;7.64;58.26
61786;BME280;47692;53.714;11.372;2023-02-19T13:51:57;101537.00;;;7.73;56.44
61786;BME280;47692;53.714;11.372;2023-02-19T13:54:26;101528.31;;;7.65;54.37
61786;BME280;47692;53.714;11.372;2023-02-19T13:59:46;101521.31;;;7.36;55.23
61786;BME280;47692;53.714;11.372;2023-02-19T14:04:56;101513.38;;;7.02;57.42
61786;BME280;47692;53.714;11.372;2023-02-19T14:09:53;101533.38;;;7.22;57.01
61786;BME280;47692;53.714;11.372;2023-02-19T14:12:20;101536.06;;;7.43;57.79
61786;BME280;47692;53.714;11.372;2023-02-19T14:14:47;101525.69;;;7.53;57.67
61786;BME280;47692;53.714;11.372;2023-02-19T14:20:11;101535.09;;;7.24;58.01
61786;BME280;47692;53.714;11.372;2023-02-19T14:22:58;101545.44;;;7.10;58.42
61786;BME280;47692;53.714;11.372;2023-02-19T14:28:23;101567.03;;;7.00;60.06
61786;BME280;47692;53.714;11.372;2023-02-19T14:34:15;101557.31;;;6.68;61.71